KDNV

Vermilion Regional Airport

Danville, Illinois, USA
METAR KDNV 191155Z AUTO 16005KT 10SM CLR 01/M01 A2995 RMK AO2 T00051011 10007 21003
Observed Flight Rules
Dec-19 @ 11:55 UTC (23 minutes ago) Visual Flight Rules
Wind Visibility Clouds
160° at 5 knots 10 miles
  • Clear skies
Temperatures Readings
Current 1°C / 34°F
Dewpoint -1°C / 30°F
Humidity 87%
Altimeter 29.95" Hg
Pressure 1014 hPa
Elevation 212
METAR KDNV 191155Z AUTO 16005KT 10SM CLR 01/M01 A2995 RMK AO2 T00051011 10007 21003
Observed Flight Rules
Dec-19 @ 11:55 UTC
(23 minutes ago)
VFR
Wind Visibility
160° at 5 knots 10 miles
Clouds
  • Clear skies
Temperature Dewpoint
1°C / 34°F -1°C / 30°F
Humidity Altimeter Pressure
87% 29.95" Hg 1014 hPa